createdAt,value
2018-02-01T00:00:18.764Z,0
2018-02-01T00:01:18.238Z,0
2018-02-01T00:02:18.709Z,0
2018-02-01T00:03:18.678Z,0
2018-02-01T00:04:18.657Z,0
2018-02-01T00:05:18.377Z,0
2018-02-01T00:06:18.596Z,0
2018-02-01T00:07:18.566Z,0
2018-02-01T00:08:18.289Z,0
2018-02-01T00:09:18.507Z,0
2018-02-01T00:10:18.481Z,0
2018-02-01T00:11:18.201Z,0
2018-02-01T00:12:18.169Z,0
2018-02-01T00:13:18.145Z,0
2018-02-01T00:14:18.112Z,0
2018-02-01T00:15:18.327Z,0
2018-02-01T00:16:18.058Z,0
2018-02-01T00:17:18.273Z,0
2018-02-01T00:18:17.996Z,0
2018-02-01T00:19:18.209Z,0
2018-02-01T00:20:18.186Z,0
2018-02-01T00:21:18.152Z,0
2018-02-01T00:22:18.123Z,0
2018-02-01T00:23:18.096Z,0
2018-02-01T00:24:18.068Z,0
2018-02-01T00:25:18.039Z,0
2018-02-01T00:26:17.518Z,0
2018-02-01T00:27:17.979Z,0
2018-02-01T00:28:17.704Z,0
2018-02-01T00:29:17.675Z,0
2018-02-01T00:30:17.893Z,0
2018-02-01T00:31:17.869Z,0
2018-02-01T00:32:17.583Z,0
2018-02-01T00:33:17.604Z,0
2018-02-01T00:34:17.772Z,0
2018-02-01T00:35:17.746Z,0
2018-02-01T00:36:17.463Z,0
2018-02-01T00:37:17.682Z,0
2018-02-01T00:38:17.755Z,0
2018-02-01T00:39:17.617Z,0
2018-02-01T00:40:17.343Z,0
2018-02-01T00:41:17.558Z,0
2018-02-01T00:42:17.377Z,0
2018-02-01T00:43:17.497Z,0
2018-02-01T00:44:17.226Z,0
2018-02-01T00:45:17.192Z,0
2018-02-01T00:46:17.169Z,0
2018-02-01T00:47:17.137Z,0
2018-02-01T00:48:17.099Z,0
2018-02-01T00:49:17.075Z,0
2018-02-01T00:50:17.044Z,0
2018-02-01T00:51:17.260Z,0
2018-02-01T00:52:16.984Z,0
2018-02-01T00:53:17.200Z,0
2018-02-01T00:54:17.170Z,0
2018-02-01T00:55:17.143Z,0
2018-02-01T00:56:17.112Z,0
2018-02-01T00:57:16.843Z,0
2018-02-01T00:58:17.053Z,0
2018-02-01T00:59:16.774Z,0
2018-02-01T01:00:16.499Z,0
2018-02-01T01:01:16.720Z,0
2018-02-01T01:02:16.934Z,0
2018-02-01T01:03:16.901Z,0
2018-02-01T01:04:16.383Z,0
2018-02-01T01:05:16.602Z,0
2018-02-01T01:06:16.812Z,0
2018-02-01T01:07:16.779Z,0
2018-02-01T01:08:16.511Z,0
2018-02-01T01:09:16.723Z,0
2018-02-01T01:10:16.700Z,0
2018-02-01T01:11:16.664Z,0
2018-02-01T01:12:16.395Z,0
2018-02-01T01:13:16.115Z,0
2018-02-01T01:14:16.381Z,0
2018-02-01T01:15:16.554Z,0
2018-02-01T01:16:16.278Z,0
2018-02-01T01:17:16.241Z,0
2018-02-01T01:18:16.462Z,0
2018-02-01T01:19:16.533Z,0
2018-02-01T01:20:16.396Z,0
2018-02-01T01:21:16.368Z,0
2018-02-01T01:22:16.344Z,0
2018-02-01T01:23:16.308Z,0
2018-02-01T01:24:16.276Z,0
2018-02-01T01:25:16.244Z,0
2018-02-01T01:26:16.222Z,0
2018-02-01T01:27:16.184Z,0
2018-02-01T01:28:16.206Z,0
2018-02-01T01:29:16.129Z,0
2018-02-01T01:30:15.854Z,0
2018-02-01T01:31:16.068Z,0
2018-02-01T01:32:16.041Z,0
2018-02-01T01:33:15.764Z,0
2018-02-01T01:34:15.735Z,0
2018-02-01T01:35:16.002Z,0
2018-02-01T01:36:15.921Z,0
2018-02-01T01:37:15.886Z,0
2018-02-01T01:38:15.617Z,0
2018-02-01T01:39:15.579Z,0
2018-02-01T01:40:15.802Z,0
2018-02-01T01:41:15.765Z,0
2018-02-01T01:42:15.742Z,0
2018-02-01T01:43:15.707Z,0
2018-02-01T01:44:15.431Z,0
2018-02-01T01:45:15.656Z,0
2018-02-01T01:46:15.367Z,0
2018-02-01T01:47:14.851Z,0
2018-02-01T01:48:15.316Z,0
2018-02-01T01:49:15.041Z,0
2018-02-01T01:50:15.250Z,0
2018-02-01T01:51:14.979Z,0
2018-02-01T01:52:15.192Z,0
2018-02-01T01:53:14.919Z,0
2018-02-01T01:54:15.382Z,0
2018-02-01T01:55:15.103Z,0
2018-02-01T01:56:15.084Z,0
2018-02-01T01:57:15.344Z,0
2018-02-01T01:58:15.022Z,0
2018-02-01T01:59:15.244Z,0
2018-02-01T02:00:14.962Z,0
2018-02-01T02:01:14.926Z,0
2018-02-01T02:02:15.140Z,0
2018-02-01T02:03:15.113Z,0
2018-02-01T02:04:15.080Z,0
2018-02-01T02:05:14.816Z,0
2018-02-01T02:06:15.067Z,0
2018-02-01T02:07:14.988Z,0
2018-02-01T02:08:14.710Z,0
2018-02-01T02:09:14.926Z,0
2018-02-01T02:10:14.898Z,0
2018-02-01T02:11:14.382Z,0
2018-02-01T02:12:14.839Z,0
2018-02-01T02:13:14.807Z,0
2018-02-01T02:14:14.542Z,0
2018-02-01T02:15:14.537Z,0
2018-02-01T02:16:14.475Z,0
2018-02-01T02:17:14.448Z,0
2018-02-01T02:18:14.705Z,0
2018-02-01T02:19:14.627Z,0
2018-02-01T02:20:14.602Z,0
2018-02-01T02:21:14.329Z,0
2018-02-01T02:22:14.543Z,0
2018-02-01T02:23:14.510Z,0
2018-02-01T02:24:13.988Z,0
2018-02-01T02:25:14.447Z,0
2018-02-01T02:26:14.421Z,0
2018-02-01T02:27:14.388Z,0
2018-02-01T02:28:14.114Z,0
2018-02-01T02:29:14.327Z,0
2018-02-01T02:30:14.323Z,0
2018-02-01T02:31:14.028Z,0
2018-02-01T02:32:14.238Z,0
2018-02-01T02:33:14.223Z,0
2018-02-01T02:34:14.180Z,0
2018-02-01T02:35:14.158Z,0
2018-02-01T02:36:14.127Z,0
2018-02-01T02:37:14.094Z,0
2018-02-01T02:38:14.070Z,0
2018-02-01T02:39:14.034Z,0
2018-02-01T02:40:14.005Z,0
2018-02-01T02:41:13.725Z,0
2018-02-01T02:42:13.941Z,0
2018-02-01T02:43:13.915Z,0
2018-02-01T02:44:13.882Z,0
2018-02-01T02:45:13.873Z,0
2018-02-01T02:46:13.335Z,0
2018-02-01T02:47:13.304Z,0
2018-02-01T02:48:13.521Z,0
2018-02-01T02:49:13.731Z,0
2018-02-01T02:50:13.712Z,0
2018-02-01T02:51:13.676Z,0
2018-02-01T02:52:13.154Z,0
2018-02-01T02:53:13.616Z,0
2018-02-01T02:54:13.336Z,0
2018-02-01T02:55:13.647Z,0
2018-02-01T02:56:13.286Z,0
2018-02-01T02:57:13.493Z,0
2018-02-01T02:58:13.461Z,0
2018-02-01T02:59:12.942Z,0
2018-02-01T03:00:13.276Z,0
2018-02-01T03:01:13.134Z,0
2018-02-01T03:02:13.095Z,0
2018-02-01T03:03:13.311Z,0
2018-02-01T03:04:13.067Z,0
2018-02-01T03:05:13.555Z,0
2018-02-01T03:06:12.726Z,0
2018-02-01T03:07:12.940Z,0
2018-02-01T03:08:12.923Z,0
2018-02-01T03:09:12.882Z,0
2018-02-01T03:10:12.607Z,0
2018-02-01T03:11:12.579Z,0
2018-02-01T03:12:12.791Z,0
2018-02-01T03:13:12.513Z,0
2018-02-01T03:14:12.983Z,0
2018-02-01T03:15:12.708Z,0
2018-02-01T03:16:12.927Z,0
2018-02-01T03:17:12.393Z,0
2018-02-01T03:18:12.608Z,0
2018-02-01T03:19:12.579Z,0
2018-02-01T03:20:12.798Z,0
2018-02-01T03:21:12.763Z,0
2018-02-01T03:22:12.491Z,0
2018-02-01T03:23:12.218Z,0
2018-02-01T03:24:12.684Z,0
2018-02-01T03:25:12.401Z,0
2018-02-01T03:26:12.612Z,0
2018-02-01T03:27:12.588Z,0
2018-02-01T03:28:12.557Z,0
2018-02-01T03:29:12.288Z,0
2018-02-01T03:30:12.498Z,0
2018-02-01T03:31:12.219Z,0
2018-02-01T03:32:12.431Z,0
2018-02-01T03:33:12.163Z,0
2018-02-01T03:34:12.132Z,0
2018-02-01T03:35:12.350Z,0
2018-02-01T03:36:12.061Z,0
2018-02-01T03:37:12.282Z,0
2018-02-01T03:38:12.010Z,0
2018-02-01T03:39:12.224Z,0
2018-02-01T03:40:11.697Z,0
2018-02-01T03:41:12.159Z,0
2018-02-01T03:42:12.135Z,0
2018-02-01T03:43:12.103Z,0
2018-02-01T03:44:12.068Z,0
2018-02-01T03:45:12.042Z,0
2018-02-01T03:46:11.763Z,0
2018-02-01T03:47:11.488Z,0
2018-02-01T03:48:11.946Z,0
2018-02-01T03:49:11.924Z,0
2018-02-01T03:50:11.396Z,0
2018-02-01T03:51:11.618Z,0
2018-02-01T03:52:11.581Z,0
2018-02-01T03:53:11.801Z,0
2018-02-01T03:54:11.526Z,0
2018-02-01T03:55:11.490Z,0
2018-02-01T03:56:11.463Z,0
2018-02-01T03:57:11.674Z,0
2018-02-01T03:58:11.644Z,0
2018-02-01T03:59:11.124Z,0
2018-02-01T04:00:11.385Z,0
2018-02-01T04:01:11.553Z,0
2018-02-01T04:02:11.528Z,0
2018-02-01T04:03:11.256Z,0
2018-02-01T04:04:11.223Z,0
2018-02-01T04:05:11.183Z,0
2018-02-01T04:06:11.159Z,0
2018-02-01T04:07:10.881Z,0
2018-02-01T04:08:11.097Z,0
2018-02-01T04:09:11.072Z,0
2018-02-01T04:10:11.286Z,0
2018-02-01T04:11:10.758Z,0
2018-02-01T04:12:10.484Z,0
2018-02-01T04:13:11.211Z,0
2018-02-01T04:14:10.675Z,0
2018-02-01T04:15:11.130Z,0
2018-02-01T04:16:10.608Z,0
2018-02-01T04:17:10.873Z,0
2018-02-01T04:18:10.791Z,0
2018-02-01T04:19:10.516Z,0
2018-02-01T04:20:10.978Z,0
2018-02-01T04:21:10.706Z,0
2018-02-01T04:22:10.680Z,0
2018-02-01T04:23:10.887Z,0
2018-02-01T04:24:10.610Z,0
2018-02-01T04:25:10.583Z,0
2018-02-01T04:26:10.547Z,0
2018-02-01T04:27:10.766Z,0
2018-02-01T04:28:10.489Z,0
2018-02-01T04:29:10.703Z,0
2018-02-01T04:30:10.439Z,0
2018-02-01T04:31:10.400Z,0
2018-02-01T04:32:10.472Z,0
2018-02-01T04:33:10.096Z,0
2018-02-01T04:34:10.557Z,0
2018-02-01T04:35:10.525Z,0
2018-02-01T04:36:10.492Z,0
2018-02-01T04:37:10.463Z,0
2018-02-01T04:38:10.443Z,0
2018-02-01T04:39:10.153Z,0
2018-02-01T04:40:10.126Z,0
2018-02-01T04:41:10.341Z,0
2018-02-01T04:42:10.069Z,0
2018-02-01T04:43:10.277Z,0
2018-02-01T04:44:10.003Z,0
2018-02-01T04:45:10.104Z,0
2018-02-01T04:46:10.227Z,0
2018-02-01T04:47:10.160Z,0
2018-02-01T04:48:09.880Z,0
2018-02-01T04:49:09.852Z,0
2018-02-01T04:50:10.069Z,0
2018-02-01T04:51:10.037Z,0
2018-02-01T04:52:10.004Z,0
2018-02-01T04:53:09.729Z,0
2018-02-01T04:54:09.452Z,0
2018-02-01T04:55:09.424Z,0
2018-02-01T04:56:09.892Z,0
2018-02-01T04:57:09.857Z,0
2018-02-01T04:58:09.585Z,0
2018-02-01T04:59:09.549Z,0
2018-02-01T05:00:09.764Z,0
2018-02-01T05:01:09.481Z,0
2018-02-01T05:02:09.457Z,0
2018-02-01T05:03:09.426Z,0
2018-02-01T05:04:09.640Z,0
2018-02-01T05:05:09.610Z,0
2018-02-01T05:06:09.579Z,0
2018-02-01T05:07:09.594Z,0
2018-02-01T05:08:09.276Z,0
2018-02-01T05:09:09.244Z,0
2018-02-01T05:10:08.967Z,0
2018-02-01T05:11:09.180Z,0
2018-02-01T05:12:08.905Z,0
2018-02-01T05:13:08.869Z,0
2018-02-01T05:14:09.369Z,0
2018-02-01T05:15:09.301Z,0
2018-02-01T05:16:08.582Z,0
2018-02-01T05:17:09.236Z,0
2018-02-01T05:18:09.268Z,0
2018-02-01T05:19:09.181Z,0
2018-02-01T05:20:09.152Z,0
2018-02-01T05:21:08.874Z,0
2018-02-01T05:22:08.848Z,0
2018-02-01T05:23:08.811Z,0
2018-02-01T05:24:08.783Z,0
2018-02-01T05:25:08.752Z,0
2018-02-01T05:26:08.724Z,0
2018-02-01T05:27:08.931Z,0
2018-02-01T05:28:08.912Z,0
2018-02-01T05:29:08.629Z,0
2018-02-01T05:30:08.598Z,0
2018-02-01T05:31:08.569Z,0
2018-02-01T05:32:08.791Z,0
2018-02-01T05:33:08.508Z,0
2018-02-01T05:34:08.225Z,0
2018-02-01T05:35:07.953Z,0
2018-02-01T05:36:08.413Z,0
2018-02-01T05:37:07.891Z,0
2018-02-01T05:38:08.355Z,0
2018-02-01T05:39:08.083Z,0
2018-02-01T05:40:08.539Z,0
2018-02-01T05:41:08.265Z,0
2018-02-01T05:42:08.234Z,0
2018-02-01T05:43:08.452Z,0
2018-02-01T05:44:08.417Z,0
2018-02-01T05:45:08.150Z,0
2018-02-01T05:46:08.357Z,0
2018-02-01T05:47:08.083Z,0
2018-02-01T05:48:08.054Z,0
2018-02-01T05:49:08.262Z,0
2018-02-01T05:50:07.990Z,0
2018-02-01T05:51:08.199Z,0
2018-02-01T05:52:08.173Z,0
2018-02-01T05:53:07.897Z,0
2018-02-01T05:54:07.864Z,0
2018-02-01T05:55:07.833Z,0
2018-02-01T05:56:08.074Z,0
2018-02-01T05:57:08.023Z,0
2018-02-01T05:58:07.496Z,0
2018-02-01T05:59:07.953Z,0
2018-02-01T06:00:07.682Z,0
2018-02-01T06:01:07.654Z,0
2018-02-01T06:02:07.619Z,0
2018-02-01T06:03:07.920Z,0
2018-02-01T06:04:07.562Z,0
2018-02-01T06:05:07.529Z,0
2018-02-01T06:06:07.494Z,0
2018-02-01T06:07:07.467Z,0
2018-02-01T06:08:07.682Z,0
2018-02-01T06:09:07.161Z,0
2018-02-01T06:10:07.370Z,0
2018-02-01T06:11:07.589Z,0
2018-02-01T06:12:07.309Z,0
2018-02-01T06:13:07.538Z,0
2018-02-01T06:14:08.856Z,0
2018-02-01T06:15:08.613Z,0
2018-02-01T06:16:07.912Z,0
2018-02-01T06:17:07.407Z,0
2018-02-01T06:18:07.132Z,0
2018-02-01T06:19:07.448Z,0
2018-02-01T06:20:07.317Z,0
2018-02-01T06:21:07.276Z,0
2018-02-01T06:22:07.002Z,0
2018-02-01T06:23:06.978Z,0
2018-02-01T06:24:06.940Z,0
2018-02-01T06:25:06.910Z,0
2018-02-01T06:26:06.884Z,0
2018-02-01T06:27:07.097Z,0
2018-02-01T06:28:07.064Z,0
2018-02-01T06:29:07.052Z,0
2018-02-01T06:30:07.007Z,0
2018-02-01T06:31:06.972Z,0
2018-02-01T06:32:06.456Z,0
2018-02-01T06:33:06.977Z,0
2018-02-01T06:34:06.403Z,0
2018-02-01T06:35:06.858Z,4
2018-02-01T06:36:06.834Z,4
2018-02-01T06:37:06.793Z,4
2018-02-01T06:38:06.514Z,4
2018-02-01T06:39:06.482Z,4
2018-02-01T06:40:06.450Z,4
2018-02-01T06:41:06.665Z,4
2018-02-01T06:42:06.641Z,8
2018-02-01T06:43:06.411Z,8
2018-02-01T06:44:06.431Z,8
2018-02-01T06:45:06.553Z,12
2018-02-01T06:46:06.022Z,16
2018-02-01T06:47:06.489Z,20
2018-02-01T06:48:06.204Z,20
2018-02-01T06:49:06.455Z,24
2018-02-01T06:50:05.652Z,28
2018-02-01T06:51:06.112Z,36
2018-02-01T06:52:06.326Z,36
2018-02-01T06:53:06.329Z,44
2018-02-01T06:54:05.773Z,52
2018-02-01T06:55:06.245Z,60
2018-02-01T06:56:05.960Z,72
2018-02-01T06:57:06.176Z,80
2018-02-01T06:58:05.898Z,92
2018-02-01T06:59:05.864Z,100
2018-02-01T07:00:05.848Z,116
2018-02-01T07:01:05.587Z,132
2018-02-01T07:02:06.030Z,144
2018-02-01T07:03:05.996Z,164
2018-02-01T07:04:05.715Z,188
2018-02-01T07:05:05.930Z,204
2018-02-01T07:06:05.903Z,220
2018-02-01T07:07:05.875Z,244
2018-02-01T07:08:05.595Z,276
2018-02-01T07:09:05.808Z,312
2018-02-01T07:10:05.535Z,328
2018-02-01T07:11:05.752Z,348
2018-02-01T07:12:05.725Z,392
2018-02-01T07:13:05.455Z,436
2018-02-01T07:14:05.408Z,476
2018-02-01T07:15:06.425Z,520
2018-02-01T07:16:06.447Z,560
2018-02-01T07:17:06.109Z,600
2018-02-01T07:18:05.551Z,648
2018-02-01T07:19:05.011Z,696
2018-02-01T07:20:05.233Z,760
2018-02-01T07:21:05.201Z,832
2018-02-01T07:22:06.075Z,900
2018-02-01T07:23:06.171Z,932
2018-02-01T07:24:06.702Z,932
2018-02-01T07:25:05.572Z,920
2018-02-01T07:26:05.537Z,916
2018-02-01T07:27:04.765Z,992
2018-02-01T07:28:04.984Z,1012
2018-02-01T07:29:05.209Z,1060
2018-02-01T07:30:05.025Z,1124
2018-02-01T07:31:05.139Z,1240
2018-02-01T07:32:04.619Z,1268
2018-02-01T07:33:04.587Z,1288
2018-02-01T07:34:05.050Z,1356
2018-02-01T07:35:04.780Z,1452
2018-02-01T07:36:04.991Z,1468
2018-02-01T07:37:04.962Z,1556
2018-02-01T07:38:04.699Z,1660
2018-02-01T07:39:04.901Z,1872
2018-02-01T07:40:04.621Z,1752
2018-02-01T07:41:05.273Z,1732
2018-02-01T07:42:04.559Z,1756
2018-02-01T07:43:04.781Z,1928
2018-02-01T07:44:04.744Z,2100
2018-02-01T07:45:04.743Z,2108
2018-02-01T07:46:04.783Z,2140
2018-02-01T07:47:04.777Z,2244
2018-02-01T07:48:04.850Z,2704
2018-02-01T07:49:04.732Z,2724
2018-02-01T07:50:04.431Z,3128
2018-02-01T07:51:04.545Z,3212
2018-02-01T07:52:04.612Z,3184
2018-02-01T07:53:04.573Z,3320
2018-02-01T07:54:04.527Z,3060
2018-02-01T07:55:04.178Z,2724
2018-02-01T07:56:04.381Z,2560
2018-02-01T07:57:04.371Z,2672
2018-02-01T07:58:04.388Z,2656
2018-02-01T07:59:04.330Z,2592
2018-02-01T08:00:04.179Z,2752
2018-02-01T08:01:04.293Z,2960
2018-02-01T08:02:04.240Z,3224
2018-02-01T08:03:04.181Z,3228
2018-02-01T08:04:03.901Z,3264
2018-02-01T08:05:04.114Z,3524
2018-02-01T08:06:03.593Z,3548
2018-02-01T08:07:04.068Z,3588
2018-02-01T08:08:04.028Z,3504
2018-02-01T08:09:04.002Z,3252
2018-02-01T08:10:03.775Z,3116
2018-02-01T08:11:03.955Z,2992
2018-02-01T08:12:03.911Z,3012
2018-02-01T08:13:03.668Z,3052
2018-02-01T08:14:03.850Z,3084
2018-02-01T08:15:03.831Z,3140
2018-02-01T08:16:03.828Z,3416
2018-02-01T08:17:04.630Z,3472
2018-02-01T08:18:03.732Z,3328
2018-02-01T08:19:03.462Z,3352
2018-02-01T08:20:04.063Z,3424
2018-02-01T08:21:04.284Z,3532
2018-02-01T08:22:04.632Z,3600
2018-02-01T08:23:03.341Z,3740
2018-02-01T08:24:03.305Z,3696
2018-02-01T08:25:04.468Z,3664
2018-02-01T08:26:06.242Z,3620
2018-02-01T08:27:04.612Z,3620
2018-02-01T08:28:04.167Z,3608
2018-02-01T08:29:04.890Z,3696
2018-02-01T08:30:04.038Z,3752
2018-02-01T08:31:04.582Z,3780
2018-02-01T08:32:04.637Z,3788
2018-02-01T08:33:03.783Z,3816
2018-02-01T08:34:03.017Z,3832
2018-02-01T08:35:03.236Z,3852
2018-02-01T08:36:02.954Z,3896
2018-02-01T08:37:03.180Z,3900
2018-02-01T08:38:02.896Z,3940
2018-02-01T08:39:02.867Z,3952
2018-02-01T08:40:03.086Z,3980
2018-02-01T08:41:03.219Z,3984
2018-02-01T08:42:03.067Z,4004
2018-02-01T08:43:02.745Z,4016
2018-02-01T08:44:02.719Z,4020
2018-02-01T08:45:02.995Z,4036
2018-02-01T08:46:02.958Z,4052
2018-02-01T08:47:02.877Z,4072
2018-02-01T08:48:02.852Z,4096
2018-02-01T08:49:02.819Z,4100
2018-02-01T08:50:02.800Z,4120
2018-02-01T08:51:03.572Z,4160
2018-02-01T08:52:02.731Z,4192
2018-02-01T08:53:02.703Z,4204
2018-02-01T08:54:02.455Z,4200
2018-02-01T08:55:02.641Z,4216
2018-02-01T08:56:02.616Z,4252
2018-02-01T08:57:02.586Z,4264
2018-02-01T08:58:02.344Z,4276
2018-02-01T08:59:02.523Z,4316
2018-02-01T09:00:02.510Z,4340
2018-02-01T09:01:02.225Z,4368
2018-02-01T09:02:01.944Z,4420
2018-02-01T09:03:02.414Z,4436
2018-02-01T09:04:02.134Z,4412
2018-02-01T09:05:02.099Z,4404
2018-02-01T09:06:02.544Z,4432
2018-02-01T09:07:02.042Z,4456
2018-02-01T09:08:02.266Z,4544
2018-02-01T09:09:01.983Z,4524
2018-02-01T09:10:02.206Z,4532
2018-02-01T09:11:01.935Z,4556
2018-02-01T09:12:02.144Z,4592
2018-02-01T09:13:02.229Z,4628
2018-02-01T09:14:02.132Z,4652
2018-02-01T09:15:01.810Z,4704
2018-02-01T09:16:01.780Z,4868
2018-02-01T09:17:01.819Z,5172
2018-02-01T09:18:01.767Z,5176
2018-02-01T09:19:02.188Z,4840
2018-02-01T09:20:01.911Z,5324
2018-02-01T09:21:01.910Z,6980
2018-02-01T09:22:01.691Z,8712
2018-02-01T09:23:02.589Z,9060
2018-02-01T09:24:02.236Z,9132
2018-02-01T09:25:03.077Z,9628
2018-02-01T09:26:01.958Z,8940
2018-02-01T09:27:02.392Z,8140
2018-02-01T09:28:01.437Z,8996
2018-02-01T09:29:01.556Z,8388
2018-02-01T09:34:07.259Z,9920
2018-02-01T09:35:01.480Z,9552
2018-02-01T09:36:01.466Z,8580
2018-02-01T09:37:00.931Z,7800
2018-02-01T09:38:01.203Z,7420
2018-02-01T09:39:01.126Z,8576
2018-02-01T09:40:01.099Z,7836
2018-02-01T09:41:01.332Z,6808
2018-02-01T09:42:01.040Z,7176
2018-02-01T09:43:01.024Z,6776
2018-02-01T09:44:00.995Z,6992
2018-02-01T09:45:01.214Z,6588
2018-02-01T09:46:01.233Z,5884
2018-02-01T09:47:00.910Z,6944
2018-02-01T09:48:00.882Z,6552
2018-02-01T09:49:00.857Z,6216
2018-02-01T09:50:01.071Z,6548
2018-02-01T09:51:00.549Z,6864
2018-02-01T09:52:00.763Z,6736
2018-02-01T09:53:00.744Z,8372
2018-02-01T09:54:00.966Z,10672
2018-02-01T09:55:00.935Z,12144
2018-02-01T09:56:00.900Z,14032
2018-02-01T09:57:00.636Z,13028
2018-02-01T09:58:00.863Z,12180
2018-02-01T09:59:00.837Z,12700
2018-02-01T10:00:00.812Z,12824
2018-02-01T10:01:01.104Z,12044
2018-02-01T10:02:00.497Z,12676
2018-02-01T10:03:00.722Z,12532
2018-02-01T10:04:00.439Z,12308
2018-02-01T10:05:00.409Z,11852
2018-02-01T10:06:00.635Z,11660
2018-02-01T10:07:00.610Z,12060
2018-02-01T10:07:59.841Z,12196
2018-02-01T10:09:01.451Z,12428
2018-02-01T10:10:00.485Z,12004
2018-02-01T10:11:00.255Z,13660
2018-02-01T10:12:00.231Z,12976
2018-02-01T10:13:00.215Z,12920
2018-02-01T10:14:00.422Z,13328
2018-02-01T10:15:00.392Z,12924
2018-02-01T10:16:00.373Z,11364
2018-02-01T10:17:00.102Z,10680
2018-02-01T10:18:00.268Z,10776
2018-02-01T10:18:59.795Z,11068
2018-02-01T10:20:00.268Z,11220
2018-02-01T10:21:00.240Z,10156
2018-02-01T10:22:00.208Z,9420
2018-02-01T10:23:00.187Z,9128
2018-02-01T10:23:59.914Z,9056
2018-02-01T10:25:00.180Z,8560
2018-02-01T10:25:59.612Z,6400
2018-02-01T10:27:00.111Z,6984
2018-02-01T10:31:49.369Z,9912
2018-02-01T10:31:59.460Z,11100
2018-02-01T10:32:59.923Z,12520
2018-02-01T10:33:59.898Z,11780
2018-02-01T10:34:59.641Z,11380
2018-02-01T10:35:59.844Z,9544
2018-02-01T10:36:59.590Z,10368
2018-02-01T10:37:59.541Z,9364
2018-02-01T10:38:59.515Z,7024
2018-02-01T10:39:59.748Z,7608
2018-02-01T10:40:59.710Z,11460
2018-02-01T10:41:59.779Z,12284
2018-02-01T10:42:59.411Z,12748
2018-02-01T10:43:59.380Z,12608
2018-02-01T10:44:59.389Z,13208
2018-02-01T10:45:59.581Z,13060
2018-02-01T10:46:59.553Z,11252
2018-02-01T10:47:59.276Z,10612
2018-02-01T10:48:59.021Z,12228
2018-02-01T10:49:59.230Z,11700
2018-02-01T10:50:59.454Z,12148
2018-02-01T10:51:59.177Z,14892
2018-02-01T10:52:59.412Z,15572
2018-02-01T10:54:00.172Z,15612
2018-02-01T10:54:59.102Z,14772
2018-02-01T10:55:59.078Z,15248
2018-02-01T10:56:59.287Z,14192
2018-02-01T10:57:59.273Z,10860
2018-02-01T10:58:59.042Z,13320
2018-02-01T10:59:58.488Z,15272
2018-02-01T11:00:59.187Z,13348
2018-02-01T11:01:58.924Z,11904
2018-02-01T11:02:58.890Z,11864
2018-02-01T11:03:59.112Z,10076
2018-02-01T11:04:58.645Z,8176
2018-02-01T11:05:59.106Z,6072
2018-02-01T11:06:58.845Z,4892
2018-02-01T11:07:59.013Z,5620
2018-02-01T11:08:58.987Z,7924
2018-02-01T11:09:58.710Z,8444
2018-02-01T11:10:59.138Z,6636
2018-02-01T11:11:58.901Z,6396
2018-02-01T11:12:58.643Z,7208
2018-02-01T11:13:58.856Z,7736
2018-02-01T11:14:58.830Z,7456
2018-02-01T11:15:58.551Z,7288
2018-02-01T11:16:58.528Z,9992
2018-02-01T11:17:58.502Z,10940
2018-02-01T11:18:58.488Z,9880
2018-02-01T11:19:58.655Z,9900
2018-02-01T11:20:58.420Z,11872
2018-02-01T11:21:58.638Z,10532
2018-02-01T11:22:58.362Z,8940
2018-02-01T11:23:58.582Z,8636
2018-02-01T11:24:58.561Z,11520
2018-02-01T11:25:58.574Z,12688
2018-02-01T11:26:58.261Z,11372
2018-02-01T11:27:58.742Z,10660
2018-02-01T11:28:58.699Z,10476
2018-02-01T11:29:58.241Z,10792
2018-02-01T11:30:57.990Z,11028
2018-02-01T11:31:58.374Z,11400
2018-02-01T11:32:58.108Z,11608
2018-02-01T11:33:58.332Z,11932
2018-02-01T11:34:58.057Z,11032
2018-02-01T11:35:58.279Z,9888
2018-02-01T11:36:58.001Z,10508
2018-02-01T11:37:58.320Z,10888
2018-02-01T11:38:58.195Z,11508
2018-02-01T11:39:58.167Z,11832
2018-02-01T11:40:57.892Z,10784
2018-02-01T11:41:58.999Z,11068
2018-02-01T11:42:57.843Z,11084
2018-02-01T11:43:57.986Z,13236
2018-02-01T11:44:58.100Z,13204
2018-02-01T11:45:58.013Z,12852
2018-02-01T11:46:57.755Z,12292
2018-02-01T11:47:57.469Z,10284
2018-02-01T11:48:57.689Z,10144
2018-02-01T11:49:57.908Z,11544
2018-02-01T11:50:57.645Z,11484
2018-02-01T11:51:57.858Z,11872
2018-02-01T11:52:57.835Z,12020
2018-02-01T11:53:57.807Z,11468
2018-02-01T11:54:57.292Z,11020
2018-02-01T11:55:57.778Z,10928
2018-02-01T11:56:57.605Z,9592
2018-02-01T11:57:57.563Z,8316
2018-02-01T11:58:57.810Z,7476
2018-02-01T11:59:57.264Z,6632
2018-02-01T12:00:57.568Z,8556
2018-02-01T12:01:57.637Z,9888
2018-02-01T12:02:57.506Z,10524
2018-02-01T12:03:57.652Z,11420
2018-02-01T12:04:57.593Z,12004
2018-02-01T12:05:57.251Z,12676
2018-02-01T12:06:57.474Z,12980
2018-02-01T12:07:57.204Z,13252
2018-02-01T12:08:57.455Z,13844
2018-02-01T12:09:57.398Z,12944
2018-02-01T12:10:57.369Z,12416
2018-02-01T12:11:57.344Z,11680
2018-02-01T12:12:57.325Z,12660
2018-02-01T12:13:57.297Z,13000
2018-02-01T12:14:56.776Z,13716
2018-02-01T12:15:56.745Z,13500
2018-02-01T12:16:56.719Z,12992
2018-02-01T12:17:57.194Z,13372
2018-02-01T12:18:57.207Z,12076
2018-02-01T12:19:57.139Z,12316
2018-02-01T12:20:57.111Z,12516
2018-02-01T12:21:57.088Z,12720
2018-02-01T12:22:57.063Z,12124
2018-02-01T12:23:56.549Z,12392
2018-02-01T12:24:57.010Z,14808
2018-02-01T12:25:56.741Z,14216
2018-02-01T12:26:56.957Z,13124
2018-02-01T12:27:56.690Z,13520
2018-02-01T12:28:56.660Z,12656
2018-02-01T12:29:56.391Z,12792
2018-02-01T12:30:56.864Z,12264
2018-02-01T12:31:56.585Z,11524
2018-02-01T12:32:56.557Z,10572
2018-02-01T12:33:57.154Z,10332
2018-02-01T12:34:56.550Z,12080
2018-02-01T12:35:56.483Z,13868
2018-02-01T12:36:56.716Z,12984
2018-02-01T12:37:56.675Z,11740
2018-02-01T12:38:56.437Z,11120
2018-02-01T12:39:56.631Z,10248
2018-02-01T12:40:56.603Z,9260
2018-02-01T12:41:56.327Z,8216
2018-02-01T12:42:56.552Z,6692
2018-02-01T12:43:56.534Z,5756
2018-02-01T12:44:57.134Z,5428
2018-02-01T12:45:57.528Z,5512
2018-02-01T12:46:56.310Z,5060
2018-02-01T12:47:56.811Z,5884
2018-02-01T12:48:56.157Z,6700
2018-02-01T12:49:56.131Z,7200
2018-02-01T12:50:56.352Z,6684
2018-02-01T12:51:56.076Z,6420
2018-02-01T12:52:56.046Z,6196
2018-02-01T12:53:56.023Z,5704
2018-02-01T12:54:56.246Z,5232
2018-02-01T12:55:56.233Z,4680
2018-02-01T12:56:55.699Z,5216
2018-02-01T12:57:55.917Z,5684
2018-02-01T12:58:56.138Z,5952
2018-02-01T12:59:56.109Z,6740
2018-02-01T13:00:55.846Z,7360
2018-02-01T13:01:55.815Z,8944
2018-02-01T13:02:55.790Z,11356
2018-02-01T13:03:55.776Z,11876
2018-02-01T13:04:55.989Z,11324
2018-02-01T13:05:55.965Z,10716
2018-02-01T13:06:55.685Z,9920
2018-02-01T13:07:55.900Z,9424
2018-02-01T13:08:55.871Z,8760
2018-02-01T13:09:55.845Z,8232
2018-02-01T13:10:55.819Z,8336
2018-02-01T13:11:55.801Z,7888
2018-02-01T13:12:55.817Z,7728
2018-02-01T13:13:55.745Z,7652
2018-02-01T13:14:55.717Z,8112
2018-02-01T13:15:55.200Z,7732
2018-02-01T13:16:55.667Z,7308
2018-02-01T13:17:55.237Z,7504
2018-02-01T13:18:55.613Z,7440
2018-02-01T13:19:55.579Z,7860
2018-02-01T13:20:55.617Z,7972
2018-02-01T13:21:55.529Z,7136
2018-02-01T13:22:55.259Z,6120
2018-02-01T13:23:55.479Z,5508
2018-02-01T13:24:55.448Z,5000
2018-02-01T13:25:55.435Z,4424
2018-02-01T13:26:55.398Z,3952
2018-02-01T13:27:54.880Z,3576
2018-02-01T13:28:55.110Z,3424
2018-02-01T13:29:55.317Z,2992
2018-02-01T13:30:55.291Z,2900
2018-02-01T13:31:55.030Z,2948
2018-02-01T13:32:55.232Z,2816
2018-02-01T13:33:54.962Z,2596
2018-02-01T13:34:54.935Z,2200
2018-02-01T13:35:55.156Z,1720
2018-02-01T13:36:54.877Z,1496
2018-02-01T13:37:54.861Z,1464
2018-02-01T13:38:55.078Z,1544
2018-02-01T13:39:54.604Z,1676
2018-02-01T13:40:55.015Z,1908
2018-02-01T13:41:54.989Z,2228
2018-02-01T13:42:54.977Z,2668
2018-02-01T13:43:54.685Z,3568
2018-02-01T13:44:54.415Z,4452
2018-02-01T13:45:54.629Z,4496
2018-02-01T13:46:54.854Z,5008
2018-02-01T13:47:54.581Z,5216
2018-02-01T13:48:54.796Z,5632
2018-02-01T13:49:54.535Z,6412
2018-02-01T13:50:54.745Z,7624
2018-02-01T13:51:54.715Z,9016
2018-02-01T13:52:54.197Z,10460
2018-02-01T13:53:54.416Z,11624
2018-02-01T13:54:54.682Z,12320
2018-02-01T13:55:54.380Z,10636
2018-02-01T13:56:54.583Z,8240
2018-02-01T13:57:54.305Z,7832
2018-02-01T13:58:54.531Z,8756
2018-02-01T13:59:54.499Z,8648
2018-02-01T14:00:54.470Z,7272
2018-02-01T14:01:54.445Z,8316
2018-02-01T14:02:54.445Z,8760